Time;durP1;ratioP1;P1;durP2;ratioP2;P2;SDS_P1;SDS_P2;PMS_P1;PMS_P2;Temp;Humidity;BMP_temperature;BMP_pressure;BME280_temperature;BME280_humidity;BME280_pressure;Samples;Min_cycle;Max_cycle;Signal;HPM_P1;HPM_P2
2022/09/10 00:00:59;;;;;;;0.68;0.50;;;13.90;99.90;;;;;;8252077;28;20053;-80
2022/09/10 00:05:01;;;;;;;0.73;0.45;;;13.60;99.90;;;;;;8265293;28;20038;-80
2022/09/10 00:09:02;;;;;;;0.52;0.40;;;13.30;99.90;;;;;;8257166;28;20033;-80
2022/09/10 00:13:02;;;;;;;0.60;0.47;;;13.20;99.90;;;;;;8266420;28;20033;-80
2022/09/10 00:17:04;;;;;;;0.40;0.40;;;13.20;99.90;;;;;;8248042;28;20022;-80
2022/09/10 00:21:08;;;;;;;2.65;0.60;;;13.00;99.90;;;;;;8258336;28;20022;-80
2022/09/10 00:25:09;;;;;;;1.35;0.60;;;13.00;99.90;;;;;;8258978;28;20058;-80
2022/09/10 00:29:11;;;;;;;0.55;0.55;;;13.00;99.90;;;;;;8267780;28;20033;-80
2022/09/10 00:33:12;;;;;;;1.80;0.50;;;13.00;99.90;;;;;;8269106;28;20022;-80
2022/09/10 00:37:14;;;;;;;1.40;0.60;;;13.00;99.90;;;;;;8269188;28;20026;-80
2022/09/10 00:41:16;;;;;;;2.45;0.50;;;12.90;99.90;;;;;;8260246;28;20030;-79
2022/09/10 00:45:20;;;;;;;1.23;0.45;;;12.90;99.90;;;;;;8265978;28;20058;-78
2022/09/10 00:49:41;;;;;;;0.93;0.52;;;13.00;99.90;;;;;;8266459;28;20026;-80
2022/09/10 00:53:42;;;;;;;1.80;0.70;;;12.90;99.90;;;;;;8266465;28;20452;-80
2022/09/10 00:57:46;;;;;;;1.27;0.60;;;12.80;99.90;;;;;;8265322;28;20574;-79
2022/09/10 01:01:48;;;;;;;1.52;0.60;;;12.70;99.90;;;;;;8240018;28;20026;-79
2022/09/10 01:05:50;;;;;;;0.65;0.50;;;12.70;99.90;;;;;;8266288;28;20073;-80
2022/09/10 01:09:50;;;;;;;0.80;0.60;;;12.80;99.90;;;;;;8262225;28;20059;-80
2022/09/10 01:14:08;;;;;;;1.23;0.40;;;12.90;99.90;;;;;;8257950;28;20022;-80
2022/09/10 01:18:15;;;;;;;1.05;0.50;;;13.10;99.90;;;;;;8259481;28;20062;-80
2022/09/10 01:22:41;;;;;;;0.75;0.47;;;13.30;99.90;;;;;;8269445;28;20018;-80
2022/09/10 01:26:59;;;;;;;1.48;0.52;;;13.50;99.90;;;;;;8276358;28;20381;-80
2022/09/10 01:31:10;;;;;;;1.17;0.52;;;13.60;99.90;;;;;;8268522;28;20018;-79
2022/09/10 01:35:13;;;;;;;0.38;0.38;;;13.70;99.90;;;;;;8276260;28;20019;-80
2022/09/10 01:39:17;;;;;;;1.02;0.60;;;13.70;99.90;;;;;;8283542;28;20029;-80
2022/09/10 01:43:17;;;;;;;1.10;0.50;;;13.70;99.90;;;;;;8260189;28;20026;-80
2022/09/10 01:47:36;;;;;;;1.38;0.45;;;13.70;99.90;;;;;;8263471;28;20118;-79
2022/09/10 01:51:51;;;;;;;2.03;0.40;;;13.50;99.90;;;;;;8287822;28;20077;-80
2022/09/10 01:56:02;;;;;;;0.38;0.35;;;13.40;99.90;;;;;;8259281;28;20026;-80
2022/09/10 02:00:11;;;;;;;1.23;0.35;;;13.30;99.90;;;;;;8266476;28;20094;-80
2022/09/10 02:04:14;;;;;;;2.50;0.30;;;13.20;99.90;;;;;;8278524;28;20030;-79
2022/09/10 02:08:29;;;;;;;0.95;0.50;;;13.10;99.90;;;;;;8270650;28;20030;-80
2022/09/10 02:12:30;;;;;;;0.30;0.20;;;13.20;99.90;;;;;;8262027;28;20029;-80
2022/09/10 02:16:36;;;;;;;2.00;0.40;;;13.20;99.90;;;;;;8264776;28;20050;-80
2022/09/10 02:20:37;;;;;;;1.75;0.38;;;13.20;99.90;;;;;;8274833;28;20046;-80
2022/09/10 02:24:38;;;;;;;0.57;0.40;;;13.30;99.90;;;;;;8280507;28;20026;-80
2022/09/10 02:28:39;;;;;;;0.57;0.38;;;13.30;99.90;;;;;;8317948;23;20133;-91
2022/09/10 02:32:39;;;;;;;0.60;0.40;;;13.40;99.90;;;;;;8277650;28;20480;-91
2022/09/10 02:36:40;;;;;;;0.82;0.30;;;13.30;99.90;;;;;;8277941;28;20032;-91
2022/09/10 02:40:42;;;;;;;2.13;0.30;;;13.30;99.90;;;;;;8320277;23;20041;-81
2022/09/10 02:44:43;;;;;;;0.80;0.50;;;13.40;99.90;;;;;;8331715;28;20022;-81
2022/09/10 02:48:44;;;;;;;0.47;0.43;;;13.30;99.90;;;;;;8341021;28;20029;-80
2022/09/10 02:52:45;;;;;;;1.20;0.30;;;13.30;99.90;;;;;;8344371;28;20034;-81
2022/09/10 02:56:48;;;;;;;1.02;0.32;;;13.30;99.90;;;;;;8348696;28;20449;-81
2022/09/10 03:00:49;;;;;;;0.40;0.38;;;13.40;99.90;;;;;;8323641;28;20028;-79
2022/09/10 03:04:49;;;;;;;0.38;0.30;;;13.30;99.90;;;;;;8334776;28;20025;-81
2022/09/10 03:08:51;;;;;;;1.85;0.38;;;13.40;99.90;;;;;;8331168;28;20032;-81
2022/09/10 03:12:53;;;;;;;0.90;0.40;;;13.50;99.90;;;;;;8342708;28;20057;-81
2022/09/10 03:16:54;;;;;;;0.57;0.38;;;13.50;99.90;;;;;;8328260;28;20410;-81
2022/09/10 03:20:55;;;;;;;0.80;0.40;;;13.70;99.90;;;;;;8323648;28;20502;-81
2022/09/10 03:24:55;;;;;;;0.90;0.40;;;13.70;99.90;;;;;;8348933;28;20056;-79
2022/09/10 03:28:55;;;;;;;0.50;0.40;;;13.70;99.90;;;;;;8357264;28;20052;-81
2022/09/10 03:32:56;;;;;;;0.88;0.40;;;13.70;99.90;;;;;;8359605;28;20618;-81
2022/09/10 03:36:57;;;;;;;1.08;0.30;;;13.70;99.90;;;;;;8347792;28;20029;-82
2022/09/10 03:41:00;;;;;;;2.55;0.35;;;13.70;99.90;;;;;;8350273;28;20025;-81
2022/09/10 03:45:01;;;;;;;0.43;0.30;;;13.80;99.90;;;;;;8354616;28;20451;-82
2022/09/10 03:49:02;;;;;;;1.02;0.30;;;13.80;99.90;;;;;;8347878;28;20021;-80
2022/09/10 03:53:02;;;;;;;0.30;0.30;;;13.80;99.90;;;;;;8339354;28;20025;-82
2022/09/10 03:57:03;;;;;;;1.08;0.50;;;13.70;99.90;;;;;;8327166;28;20037;-82
2022/09/10 04:01:04;;;;;;;0.40;0.30;;;13.70;99.90;;;;;;8330938;28;20030;-82
2022/09/10 04:05:05;;;;;;;0.68;0.30;;;13.70;99.90;;;;;;8333197;28;20111;-82
2022/09/10 04:09:06;;;;;;;1.58;0.50;;;13.70;99.90;;;;;;8334150;28;20028;-80
2022/09/10 04:13:07;;;;;;;0.52;0.30;;;13.60;99.90;;;;;;8337799;28;20486;-81
2022/09/10 04:17:07;;;;;;;0.82;0.30;;;13.60;99.90;;;;;;8334737;28;20025;-80
2022/09/10 04:21:08;;;;;;;1.23;0.40;;;13.60;99.90;;;;;;8336564;28;20017;-79
2022/09/10 04:25:09;;;;;;;1.20;0.40;;;13.70;99.90;;;;;;8336189;28;20044;-82
2022/09/10 04:29:10;;;;;;;1.95;0.40;;;13.70;99.90;;;;;;8351442;28;20069;-81
2022/09/10 04:33:11;;;;;;;3.20;1.00;;;13.70;99.90;;;;;;8349603;28;20085;-81
2022/09/10 04:37:11;;;;;;;0.68;0.30;;;13.60;99.90;;;;;;8342835;28;20017;-80
2022/09/10 04:41:14;;;;;;;2.42;0.40;;;13.40;99.90;;;;;;8346113;28;20032;-79
2022/09/10 04:45:15;;;;;;;2.15;0.60;;;13.40;99.90;;;;;;8336334;28;20037;-79
2022/09/10 04:49:15;;;;;;;2.22;0.50;;;13.30;99.90;;;;;;8357902;28;20025;-81
2022/09/10 04:53:16;;;;;;;1.40;0.43;;;13.10;99.90;;;;;;8339427;28;20013;-81
2022/09/10 04:57:16;;;;;;;1.00;0.65;;;13.10;99.90;;;;;;8340236;28;20040;-82
2022/09/10 05:01:17;;;;;;;0.57;0.50;;;13.00;99.90;;;;;;8336566;28;20028;-82
2022/09/10 05:05:17;;;;;;;0.50;0.50;;;12.90;99.90;;;;;;8348787;28;20028;-82
2022/09/10 05:09:19;;;;;;;3.33;0.50;;;13.00;99.90;;;;;;8326186;28;20029;-81
2022/09/10 05:13:19;;;;;;;0.65;0.50;;;13.00;99.90;;;;;;8351582;28;20633;-80
2022/09/10 05:17:20;;;;;;;0.60;0.60;;;13.00;99.90;;;;;;8336652;28;20044;-82
2022/09/10 05:21:21;;;;;;;3.22;0.50;;;12.90;99.90;;;;;;8338743;28;20017;-81
2022/09/10 05:25:22;;;;;;;1.30;0.90;;;12.90;99.90;;;;;;8350618;28;20026;-80
2022/09/10 05:29:22;;;;;;;1.50;0.50;;;12.90;99.90;;;;;;8327892;28;20025;-80
2022/09/10 05:33:23;;;;;;;0.90;0.55;;;12.80;99.90;;;;;;8338066;28;20029;-79
2022/09/10 05:37:23;;;;;;;1.27;0.60;;;12.90;99.90;;;;;;8356264;28;20017;-82
2022/09/10 05:41:24;;;;;;;2.33;0.60;;;12.90;99.90;;;;;;8353936;28;20036;-80
2022/09/10 05:45:24;;;;;;;1.48;0.63;;;12.90;99.90;;;;;;8344647;28;20026;-80
2022/09/10 05:49:25;;;;;;;1.35;0.93;;;13.00;99.90;;;;;;8370736;28;20021;-79
2022/09/10 05:53:26;;;;;;;2.15;0.73;;;13.00;99.90;;;;;;8345830;28;20541;-79
2022/09/10 05:57:26;;;;;;;1.23;0.80;;;13.00;99.90;;;;;;8343396;28;20019;-79
2022/09/10 06:01:27;;;;;;;1.52;0.95;;;13.20;99.90;;;;;;8317959;28;20029;-79
2022/09/10 06:05:28;;;;;;;0.80;0.80;;;13.20;99.90;;;;;;8313109;28;20029;-79
2022/09/10 06:09:29;;;;;;;0.90;0.80;;;13.20;99.90;;;;;;8311043;28;20030;-80
2022/09/10 06:13:31;;;;;;;3.63;0.82;;;13.30;99.90;;;;;;8332685;28;20076;-78
2022/09/10 06:17:32;;;;;;;2.78;0.80;;;13.50;99.90;;;;;;8340666;28;20528;-78
2022/09/10 06:21:33;;;;;;;3.50;0.93;;;13.60;99.90;;;;;;8346091;28;20032;-79
2022/09/10 06:25:33;;;;;;;1.85;0.82;;;13.80;99.90;;;;;;8321125;28;20091;-78
2022/09/10 06:29:37;;;;;;;0.88;0.70;;;13.80;99.90;;;;;;8323747;28;20025;-78
2022/09/10 06:33:37;;;;;;;1.15;0.55;;;14.00;99.90;;;;;;8313490;28;20052;-79
2022/09/10 06:37:38;;;;;;;2.15;0.82;;;14.10;99.90;;;;;;8325886;28;20036;-77
2022/09/10 06:41:39;;;;;;;6.70;0.80;;;14.20;99.90;;;;;;8335993;28;20494;-79
2022/09/10 06:45:39;;;;;;;2.63;1.20;;;14.20;99.90;;;;;;8331054;28;20036;-78
2022/09/10 06:49:40;;;;;;;5.20;1.90;;;14.20;99.90;;;;;;8334965;28;20041;-79
2022/09/10 06:53:42;;;;;;;1.42;1.10;;;14.20;99.90;;;;;;8315230;28;20395;-80
2022/09/10 06:57:43;;;;;;;1.77;1.10;;;14.20;99.90;;;;;;8325549;28;20487;-79
2022/09/10 07:01:47;;;;;;;1.73;0.80;;;14.00;99.90;;;;;;8322324;28;20061;-79
2022/09/10 07:05:47;;;;;;;3.53;0.90;;;14.00;99.90;;;;;;8311494;28;20127;-80
2022/09/10 07:09:48;;;;;;;1.17;1.05;;;14.00;99.90;;;;;;8314741;28;20033;-79
2022/09/10 07:13:53;;;;;;;1.23;1.00;;;14.10;99.90;;;;;;8318928;28;20025;-79
2022/09/10 07:17:53;;;;;;;1.80;1.30;;;14.20;99.90;;;;;;8318305;28;20029;-79
2022/09/10 07:21:54;;;;;;;1.88;1.17;;;14.30;99.90;;;;;;8329865;28;20403;-79
2022/09/10 07:25:55;;;;;;;0.60;0.60;;;14.40;99.90;;;;;;8331024;28;20013;-79
2022/09/10 07:29:55;;;;;;;2.20;1.13;;;14.40;99.90;;;;;;8337602;28;20029;-78
2022/09/10 07:33:57;;;;;;;6.63;1.10;;;14.50;99.90;;;;;;8334138;28;20076;-78
2022/09/10 07:37:58;;;;;;;1.48;0.75;;;14.50;99.90;;;;;;8318920;28;20056;-78
2022/09/10 07:41:59;;;;;;;2.90;0.85;;;14.60;99.90;;;;;;8336176;28;20033;-79
2022/09/10 07:46:00;;;;;;;6.25;0.90;;;14.70;99.90;;;;;;8343169;28;20456;-80
2022/09/10 07:50:00;;;;;;;1.65;0.70;;;14.70;99.90;;;;;;8323674;28;20138;-79
2022/09/10 07:54:01;;;;;;;2.72;1.00;;;14.90;99.90;;;;;;8339271;28;20029;-79
2022/09/10 07:58:02;;;;;;;2.22;0.80;;;15.10;99.90;;;;;;8339662;28;20092;-79
2022/09/10 08:02:03;;;;;;;1.30;0.95;;;15.20;99.90;;;;;;8344194;28;20053;-79
2022/09/10 08:06:05;;;;;;;3.08;1.02;;;15.20;99.90;;;;;;8349557;28;20022;-80
2022/09/10 08:10:08;;;;;;;1.10;1.00;;;15.20;99.90;;;;;;8324002;28;20049;-79
2022/09/10 08:14:09;;;;;;;1.65;0.77;;;15.20;99.90;;;;;;8345520;28;20018;-79
2022/09/10 08:18:13;;;;;;;2.38;0.90;;;15.20;99.90;;;;;;8326189;28;20522;-80
2022/09/10 08:22:14;;;;;;;0.77;0.73;;;15.20;99.90;;;;;;8324740;28;20448;-80
2022/09/10 08:26:14;;;;;;;1.70;1.00;;;15.10;99.90;;;;;;8321518;28;20025;-78
2022/09/10 08:30:15;;;;;;;0.85;0.80;;;15.20;99.90;;;;;;8343753;28;20029;-78
2022/09/10 08:34:15;;;;;;;2.97;0.95;;;15.50;99.90;;;;;;8356122;28;20031;-79
2022/09/10 08:38:16;;;;;;;1.80;0.60;;;15.90;99.90;;;;;;8333459;28;20017;-77
2022/09/10 08:42:26;;;;;;;1.77;0.88;;;15.90;99.90;;;;;;8332320;28;20030;-79
2022/09/10 08:46:31;;;;;;;1.13;0.88;;;15.90;99.90;;;;;;8337986;28;20576;-78
2022/09/10 08:50:45;;;;;;;1.23;0.90;;;15.60;99.90;;;;;;8345625;28;20108;-80
2022/09/10 08:55:03;;;;;;;3.15;1.00;;;15.50;99.90;;;;;;8334606;28;20017;-80
2022/09/10 08:59:17;;;;;;;3.13;0.90;;;15.40;99.90;;;;;;8326078;28;20602;-80
2022/09/10 09:03:28;;;;;;;2.20;0.95;;;15.70;99.90;;;;;;8327492;28;20029;-80
2022/09/10 09:07:38;;;;;;;1.02;0.73;;;15.80;99.90;;;;;;8323831;28;20021;-81
2022/09/10 09:12:02;;;;;;;1.95;0.95;;;15.70;99.90;;;;;;8348161;28;20112;-79
2022/09/10 09:16:11;;;;;;;0.90;0.70;;;15.50;99.90;;;;;;8319990;28;20025;-80
2022/09/10 09:20:17;;;;;;;4.60;1.00;;;15.30;99.90;;;;;;8341228;28;20043;-78
2022/09/10 09:24:23;;;;;;;2.13;0.88;;;15.20;99.90;;;;;;8328921;28;20028;-81
2022/09/10 09:28:39;;;;;;;2.95;0.95;;;15.20;99.90;;;;;;8347831;28;20025;-79
2022/09/10 09:32:42;;;;;;;1.85;0.80;;;15.20;99.90;;;;;;8330952;28;20014;-78
2022/09/10 09:36:48;;;;;;;4.03;1.08;;;15.50;99.90;;;;;;8331326;28;20055;-80
2022/09/10 09:40:57;;;;;;;1.50;0.80;;;15.90;99.90;;;;;;8335795;28;20032;-79
2022/09/10 09:45:24;;;;;;;1.98;0.85;;;16.20;99.90;;;;;;8338884;28;20087;-79
2022/09/10 09:49:25;;;;;;;1.25;0.80;;;16.30;99.90;;;;;;8325095;28;20025;-79
2022/09/10 09:53:27;;;;;;;1.08;0.70;;;16.50;99.90;;;;;;8333002;28;20083;-79
2022/09/10 09:57:28;;;;;;;0.75;0.75;;;17.00;99.90;;;;;;8347754;28;20021;-79
2022/09/10 10:01:32;;;;;;;2.92;0.90;;;17.00;99.90;;;;;;8321748;28;20495;-81
2022/09/10 10:05:32;;;;;;;3.80;0.85;;;16.70;99.90;;;;;;8313793;28;20037;-79
2022/09/10 10:09:39;;;;;;;1.73;0.90;;;16.50;99.90;;;;;;8326103;28;20410;-81
2022/09/10 10:13:45;;;;;;;1.73;0.85;;;16.40;99.90;;;;;;8334842;28;20022;-79
2022/09/10 10:17:46;;;;;;;1.33;0.90;;;17.20;99.90;;;;;;8328283;28;20024;-80
2022/09/10 10:21:46;;;;;;;2.03;0.80;;;18.10;99.90;;;;;;8336497;28;20021;-78
2022/09/10 10:25:50;;;;;;;1.13;0.80;;;18.50;99.90;;;;;;8332637;28;20437;-78
2022/09/10 10:29:54;;;;;;;1.75;1.00;;;18.30;99.90;;;;;;8310957;28;20056;-80
2022/09/10 10:34:27;;;;;;;1.98;1.00;;;18.10;99.90;;;;;;8340399;28;20036;-81
2022/09/10 10:38:35;;;;;;;3.03;0.82;;;18.80;99.90;;;;;;8310251;28;20034;-80
2022/09/10 10:42:54;;;;;;;1.27;0.70;;;20.20;99.90;;;;;;8327607;28;20029;-81
2022/09/10 10:47:15;;;;;;;2.05;0.90;;;21.10;99.90;;;;;;8333570;28;20032;-80
2022/09/10 10:51:33;;;;;;;1.17;0.70;;;21.00;99.90;;;;;;8335794;28;20063;-80
2022/09/10 10:55:44;;;;;;;1.65;0.90;;;20.40;99.90;;;;;;8311732;28;20029;-81
2022/09/10 11:00:03;;;;;;;;;;;19.60;99.90;;;;;;8335085;28;20098;-79
2022/09/10 11:04:21;;;;;;;1.13;0.85;;;18.60;99.90;;;;;;8334271;28;19940;-79
2022/09/10 11:08:32;;;;;;;3.08;1.30;;;18.30;99.90;;;;;;8317792;28;20018;-80
2022/09/10 11:12:34;;;;;;;;;;;18.40;99.90;;;;;;8337921;28;20495;-78
2022/09/10 11:16:44;;;;;;;2.40;0.75;;;18.60;99.90;;;;;;8314512;28;19916;-81
2022/09/10 11:21:23;;;;;;;0.60;0.60;;;19.00;99.90;;;;;;8344051;28;20561;-80
2022/09/10 11:25:33;;;;;;;0.77;0.57;;;19.10;99.90;;;;;;8342806;28;20126;-81
2022/09/10 11:30:05;;;;;;;0.40;0.38;;;18.60;99.90;;;;;;8331054;28;20044;-82
2022/09/10 11:34:50;;;;;;;1.23;0.50;;;18.50;99.90;;;;;;8336018;28;20034;-80
2022/09/10 11:39:17;;;;;;;2.22;0.80;;;18.30;99.90;;;;;;8288052;28;20096;-79
2022/09/10 11:43:41;;;;;;;1.55;0.70;;;17.90;99.90;;;;;;8330233;28;20045;-82
2022/09/10 11:47:49;;;;;;;3.55;0.82;;;17.30;99.90;;;;;;8349525;28;20034;-82
2022/09/10 11:51:50;;;;;;;2.00;0.70;;;16.70;99.90;;;;;;8345310;28;20014;-83
2022/09/10 11:56:12;;;;;;;1.23;0.73;;;16.90;99.90;;;;;;8360572;28;20510;-82
2022/09/10 12:00:19;;;;;;;1.70;0.60;;;17.70;99.90;;;;;;8333694;28;20553;-81
2022/09/10 12:04:32;;;;;;;1.13;0.52;;;19.30;99.90;;;;;;8344440;28;20441;-82
2022/09/10 12:09:17;;;;;;;1.58;0.60;;;21.30;99.90;;;;;;8343510;28;20029;-81
2022/09/10 12:13:18;;;;;;;1.08;0.40;;;23.00;99.90;;;;;;8267174;28;20029;-83
2022/09/10 12:17:29;;;;;;;1.80;0.60;;;22.60;99.90;;;;;;8329029;28;20079;-83
2022/09/10 12:21:50;;;;;;;1.50;0.45;;;22.50;99.90;;;;;;8352322;28;20079;-83
2022/09/10 12:25:58;;;;;;;;;;;23.10;99.90;;;;;;8348972;28;20120;-83
2022/09/10 12:30:39;;;;;;;1.10;0.55;;;24.60;99.90;;;;;;8332302;28;19936;-83
2022/09/10 12:34:40;;;;;;;1.05;0.40;;;23.40;99.90;;;;;;8348526;28;20034;-84
2022/09/10 12:38:46;;;;;;;0.43;0.35;;;22.40;99.90;;;;;;8338351;28;20028;-81
2022/09/10 12:42:47;;;;;;;0.95;0.50;;;22.90;99.90;;;;;;8354108;28;20043;-82
2022/09/10 12:46:47;;;;;;;1.95;0.50;;;23.40;99.90;;;;;;8350287;28;20399;-83
2022/09/10 12:50:55;;;;;;;0.40;0.30;;;23.50;99.90;;;;;;8322633;28;20112;-82
2022/09/10 12:55:30;;;;;;;0.93;0.45;;;22.40;99.90;;;;;;8347235;28;20017;-81
2022/09/10 12:59:54;;;;;;;6.10;1.35;;;20.50;99.90;;;;;;8320647;28;20092;-81
2022/09/10 13:03:59;;;;;;;1.30;0.68;;;18.80;99.90;;;;;;8333516;28;21457;-87
2022/09/10 13:08:14;;;;;;;0.55;0.32;;;17.10;99.90;;;;;;8313181;28;20076;-85
2022/09/10 13:12:21;;;;;;;0.77;0.30;;;16.80;99.90;;;;;;8340140;28;20031;-83
2022/09/10 13:16:25;;;;;;;2.20;0.40;;;17.00;99.90;;;;;;8352291;28;20020;-84
2022/09/10 13:20:25;;;;;;;0.43;0.30;;;16.20;99.90;;;;;;8346952;28;20030;-83
2022/09/10 13:24:33;;;;;;;0.35;0.30;;;15.80;99.90;;;;;;8335268;28;20036;-83
2022/09/10 13:28:39;;;;;;;0.50;0.45;;;15.60;99.90;;;;;;8336173;28;20087;-83
2022/09/10 13:32:47;;;;;;;1.55;0.30;;;15.60;99.90;;;;;;8333706;28;20017;-83
2022/09/10 13:37:00;;;;;;;0.68;0.40;;;15.50;99.90;;;;;;8340179;28;20029;-85
2022/09/10 13:41:38;;;;;;;1.08;0.30;;;15.40;99.90;;;;;;8350509;28;20116;-86
2022/09/10 13:45:45;;;;;;;0.65;0.40;;;16.90;99.90;;;;;;8349074;28;20437;-85
2022/09/10 13:50:00;;;;;;;0.30;0.30;;;17.50;99.90;;;;;;8350765;28;20101;-84
2022/09/10 13:54:07;;;;;;;0.40;0.30;;;17.10;99.90;;;;;;8347652;28;20651;-84
2022/09/10 13:58:15;;;;;;;0.28;0.28;;;17.60;99.90;;;;;;8351489;28;20030;-84
2022/09/10 14:02:18;;;;;;;0.38;0.25;;;18.50;99.90;;;;;;8319641;28;20075;-83
2022/09/10 14:06:22;;;;;;;0.38;0.28;;;19.80;99.90;;;;;;8336029;28;20068;-83
2022/09/10 14:10:23;;;;;;;0.50;0.20;;;21.20;99.90;;;;;;8337816;28;20025;-82
2022/09/10 14:14:33;;;;;;;0.63;0.30;;;22.70;99.90;;;;;;8329319;28;20021;-83
2022/09/10 14:18:43;;;;;;;1.15;0.30;;;22.40;99.90;;;;;;8324545;28;20028;-83
2022/09/10 14:22:44;;;;;;;1.42;0.52;;;21.50;99.90;;;;;;8328828;28;20560;-83
2022/09/10 14:27:13;;;;;;;0.50;0.38;;;20.30;99.90;;;;;;8341527;22;20131;-81
2022/09/10 14:31:20;;;;;;;0.28;0.20;;;19.70;99.90;;;;;;8323347;28;20025;-80
2022/09/10 14:35:44;;;;;;;0.57;0.30;;;20.20;99.90;;;;;;8316374;28;20024;-80
2022/09/10 14:39:45;;;;;;;1.70;0.30;;;20.30;99.90;;;;;;8309600;28;20120;-81
2022/09/10 14:43:45;;;;;;;0.50;0.30;;;20.40;99.90;;;;;;8337372;28;20030;-81
2022/09/10 14:47:53;;;;;;;0.80;0.30;;;19.90;99.90;;;;;;8317667;28;20112;-82
2022/09/10 14:51:55;;;;;;;0.82;0.32;;;20.60;99.90;;;;;;8314229;28;20022;-81
2022/09/10 14:55:55;;;;;;;0.80;0.30;;;24.40;99.90;;;;;;8340560;28;20272;-82
2022/09/10 14:59:56;;;;;;;2.75;0.30;;;25.60;99.90;;;;;;8319180;28;20030;-82
2022/09/10 15:04:00;;;;;;;2.55;0.40;;;22.70;99.90;;;;;;8342307;28;20032;-81
2022/09/10 15:08:01;;;;;;;0.65;0.40;;;20.50;99.90;;;;;;8331607;28;20029;-81
2022/09/10 15:12:12;;;;;;;0.52;0.22;;;19.30;99.90;;;;;;8342649;28;20458;-82
2022/09/10 15:16:13;;;;;;;;;;;18.70;99.90;;;;;;8316111;28;20021;-82
2022/09/10 15:20:15;;;;;;;0.80;0.30;;;18.20;99.90;;;;;;8335970;28;20567;-80
2022/09/10 15:24:18;;;;;;;0.40;0.40;;;17.90;99.90;;;;;;8327488;28;20033;-80
2022/09/10 15:28:19;;;;;;;2.03;0.50;;;17.60;99.90;;;;;;8325750;28;20036;-81
2022/09/10 15:32:20;;;;;;;1.67;0.70;;;17.60;99.90;;;;;;8316229;28;20443;-80
2022/09/10 15:36:21;;;;;;;1.52;0.57;;;18.10;99.90;;;;;;8327976;28;20034;-80
2022/09/10 15:40:23;;;;;;;2.15;0.50;;;18.70;99.90;;;;;;8323851;28;20483;-80
2022/09/10 15:44:24;;;;;;;1.23;0.38;;;19.80;99.90;;;;;;8324112;28;20028;-80
2022/09/10 15:48:24;;;;;;;0.47;0.30;;;19.20;99.90;;;;;;8317047;28;20033;-80
2022/09/10 15:52:25;;;;;;;1.85;0.40;;;19.00;99.90;;;;;;8307024;28;20025;-80
2022/09/10 15:56:25;;;;;;;2.35;0.57;;;18.60;99.90;;;;;;8323643;28;20115;-80
2022/09/10 16:00:26;;;;;;;0.90;0.40;;;18.60;99.90;;;;;;8312998;28;20453;-81
2022/09/10 16:04:27;;;;;;;1.52;0.40;;;18.20;99.90;;;;;;8313268;28;20078;-79
2022/09/10 16:08:28;;;;;;;0.98;0.45;;;17.90;99.90;;;;;;8325616;28;20021;-81
2022/09/10 16:12:29;;;;;;;1.13;0.60;;;17.70;99.90;;;;;;8298684;28;20029;-80
2022/09/10 16:16:31;;;;;;;1.90;0.50;;;17.30;99.90;;;;;;8320369;28;20036;-79
2022/09/10 16:20:32;;;;;;;3.53;0.68;;;17.10;99.90;;;;;;8320685;28;20021;-80
2022/09/10 16:24:33;;;;;;;1.35;0.50;;;16.90;99.90;;;;;;8325858;28;20048;-81
2022/09/10 16:28:34;;;;;;;0.50;0.50;;;16.70;99.90;;;;;;8306119;28;20030;-79
2022/09/10 16:32:34;;;;;;;1.48;0.70;;;16.80;99.90;;;;;;8313546;28;20036;-81
2022/09/10 16:36:36;;;;;;;2.53;0.50;;;16.80;99.90;;;;;;8325502;28;20057;-81
2022/09/10 16:40:36;;;;;;;1.50;0.65;;;16.70;99.90;;;;;;8327397;28;20028;-80
2022/09/10 16:44:37;;;;;;;1.83;0.70;;;16.70;99.90;;;;;;8341997;28;20384;-80
2022/09/10 16:48:40;;;;;;;1.40;0.50;;;16.60;99.90;;;;;;8332564;28;20057;-80
2022/09/10 16:52:40;;;;;;;3.17;0.70;;;16.50;99.90;;;;;;8316792;28;20022;-80
2022/09/10 16:56:43;;;;;;;2.65;0.90;;;16.60;99.90;;;;;;8317642;28;20036;-80
2022/09/10 17:00:44;;;;;;;0.80;0.50;;;16.50;99.90;;;;;;8343335;28;20022;-80
2022/09/10 17:04:44;;;;;;;0.90;0.70;;;16.40;99.90;;;;;;8329075;28;20470;-80
2022/09/10 17:08:46;;;;;;;5.55;2.10;;;16.40;99.90;;;;;;8327554;28;20037;-81
2022/09/10 17:12:46;;;;;;;2.28;0.88;;;16.30;99.90;;;;;;8348066;28;20053;-80
2022/09/10 17:16:47;;;;;;;0.88;0.80;;;16.30;99.90;;;;;;8330003;28;20387;-80
2022/09/10 17:20:48;;;;;;;2.53;0.80;;;16.20;99.90;;;;;;8315900;28;20018;-82
2022/09/10 17:24:48;;;;;;;2.42;1.00;;;15.90;99.90;;;;;;8320006;28;20040;-80
2022/09/10 17:28:57;;;;;;;2.28;0.95;;;16.10;99.90;;;;;;8319947;28;20037;-79
2022/09/10 17:32:58;;;;;;;5.65;1.00;;;15.90;99.90;;;;;;8334067;28;20503;-80
2022/09/10 17:36:59;;;;;;;1.63;0.75;;;15.70;99.90;;;;;;8337137;28;20053;-79
2022/09/10 17:41:03;;;;;;;4.18;0.68;;;15.40;99.90;;;;;;8337883;28;20119;-80
2022/09/10 17:45:04;;;;;;;3.20;0.70;;;15.00;99.90;;;;;;8326569;28;20021;-79
2022/09/10 17:49:05;;;;;;;3.47;1.00;;;14.60;99.90;;;;;;8329820;28;20035;-79
2022/09/10 17:53:06;;;;;;;4.82;2.25;;;14.40;99.90;;;;;;8347185;28;20067;-80
2022/09/10 17:57:06;;;;;;;9.73;3.50;;;14.30;99.90;;;;;;8330611;28;20304;-80
2022/09/10 18:01:12;;;;;;;13.07;6.95;;;14.20;99.90;;;;;;8324244;28;20033;-80
2022/09/10 18:05:13;;;;;;;18.50;11.93;;;14.10;99.90;;;;;;8326179;28;20108;-80
2022/09/10 18:09:14;;;;;;;15.30;8.65;;;14.20;99.90;;;;;;8338785;28;20032;-80
2022/09/10 18:13:14;;;;;;;29.02;17.10;;;14.30;99.90;;;;;;8319783;28;20024;-79
2022/09/10 18:17:16;;;;;;;45.10;25.98;;;14.30;99.90;;;;;;8330594;28;20044;-80
2022/09/10 18:21:24;;;;;;;9.30;6.07;;;14.30;99.90;;;;;;8335471;28;20459;-80
2022/09/10 18:25:29;;;;;;;23.38;6.88;;;14.30;99.90;;;;;;8329037;28;20029;-81
2022/09/10 18:29:29;;;;;;;2.47;1.17;;;14.20;99.90;;;;;;8338775;28;20491;-80
2022/09/10 18:33:37;;;;;;;4.80;1.20;;;14.30;99.90;;;;;;8338420;28;20010;-79
2022/09/10 18:37:38;;;;;;;2.70;1.10;;;14.40;99.90;;;;;;8329751;28;20026;-80
2022/09/10 18:41:44;;;;;;;1.48;1.10;;;14.50;99.90;;;;;;8338139;28;20079;-79
2022/09/10 18:45:44;;;;;;;3.50;1.30;;;14.50;99.90;;;;;;8327649;28;20067;-79
2022/09/10 18:49:46;;;;;;;1.92;1.15;;;14.50;99.90;;;;;;8335080;28;20045;-80
2022/09/10 18:53:51;;;;;;;3.85;1.00;;;14.60;99.90;;;;;;8330994;28;20024;-80
2022/09/10 18:57:51;;;;;;;2.40;1.25;;;14.50;99.90;;;;;;8326743;28;20479;-80
2022/09/10 19:01:54;;;;;;;2.60;1.20;;;14.50;99.90;;;;;;8320190;28;20026;-78
2022/09/10 19:05:54;;;;;;;2.60;0.90;;;14.80;99.90;;;;;;8342917;28;20022;-79
2022/09/10 19:09:56;;;;;;;4.07;1.50;;;14.70;99.90;;;;;;8337719;28;20034;-79
2022/09/10 19:13:56;;;;;;;5.60;1.50;;;14.50;99.90;;;;;;8327164;28;20398;-78
2022/09/10 19:17:57;;;;;;;2.63;1.33;;;14.30;99.90;;;;;;8329574;28;20032;-78
2022/09/10 19:22:01;;;;;;;5.03;1.40;;;14.00;99.90;;;;;;8329651;28;20018;-79
2022/09/10 19:26:02;;;;;;;2.95;1.35;;;14.00;99.90;;;;;;8328930;28;20286;-79
2022/09/10 19:30:03;;;;;;;3.97;1.30;;;13.90;99.90;;;;;;8335729;28;20399;-79
2022/09/10 19:34:05;;;;;;;5.93;2.13;;;13.70;99.90;;;;;;8329038;28;20391;-79
2022/09/10 19:38:06;;;;;;;3.28;1.73;;;13.70;99.90;;;;;;8334798;28;20384;-79
2022/09/10 19:42:07;;;;;;;2.40;1.67;;;13.70;99.90;;;;;;8333373;28;20116;-79
2022/09/10 19:46:09;;;;;;;5.05;1.67;;;13.70;99.90;;;;;;8335175;28;20048;-80
2022/09/10 19:50:10;;;;;;;2.08;1.50;;;13.80;99.90;;;;;;8335474;28;20438;-79
2022/09/10 19:54:11;;;;;;;1.63;1.48;;;13.70;99.90;;;;;;8342688;28;20024;-78
2022/09/10 19:58:12;;;;;;;4.57;2.10;;;13.90;99.90;;;;;;8348757;28;20017;-80
2022/09/10 20:02:12;;;;;;;4.18;1.65;;;13.90;99.90;;;;;;8348333;28;20483;-78
2022/09/10 20:06:17;;;;;;;2.85;1.70;;;13.90;99.90;;;;;;8335142;28;20502;-78
2022/09/10 20:10:17;;;;;;;2.45;1.58;;;13.90;99.90;;;;;;8342438;28;20074;-78
2022/09/10 20:14:19;;;;;;;2.60;1.40;;;13.90;99.90;;;;;;8342770;28;20025;-78
2022/09/10 20:18:26;;;;;;;3.58;1.38;;;13.80;99.90;;;;;;8334883;28;20043;-78
2022/09/10 20:22:26;;;;;;;1.42;0.90;;;13.70;99.90;;;;;;8330094;28;20029;-79
2022/09/10 20:30:30;;;;;;;3.15;1.00;;;13.60;99.90;;;;;;8282066;28;20050;-82
2022/09/10 20:34:32;;;;;;;3.65;1.00;;;13.50;99.90;;;;;;8256485;28;20077;-83
2022/09/10 20:38:33;;;;;;;1.08;0.82;;;13.40;99.90;;;;;;8278003;28;20032;-83
2022/09/10 20:42:33;;;;;;;4.22;1.33;;;13.30;99.90;;;;;;8268658;28;20026;-82
2022/09/10 20:46:34;;;;;;;2.67;1.20;;;13.30;99.90;;;;;;8247186;28;20026;-83
2022/09/10 20:50:34;;;;;;;1.58;1.30;;;13.30;99.90;;;;;;8267131;28;20039;-82
2022/09/10 20:54:35;;;;;;;1.77;1.20;;;13.30;99.90;;;;;;8269875;28;20112;-83
2022/09/10 20:58:36;;;;;;;2.45;1.30;;;13.20;99.90;;;;;;8268149;28;20022;-82
2022/09/10 21:02:37;;;;;;;2.40;1.02;;;13.20;99.90;;;;;;8247248;28;20045;-81
2022/09/10 21:06:38;;;;;;;1.58;1.00;;;13.20;99.90;;;;;;8246152;28;20029;-82
2022/09/10 21:10:39;;;;;;;2.92;0.90;;;13.20;99.90;;;;;;8268551;28;20499;-82
2022/09/10 21:14:39;;;;;;;2.05;1.02;;;13.20;99.90;;;;;;8270480;28;20030;-81
2022/09/10 21:18:41;;;;;;;4.00;1.30;;;13.30;99.90;;;;;;8247685;28;20029;-80